Time;durP1;ratioP1;P1;durP2;ratioP2;P2;SDS_P1;SDS_P2;PMS_P1;PMS_P2;Temp;Humidity;BMP_temperature;BMP_pressure;BME280_temperature;BME280_humidity;BME280_pressure;Samples;Min_cycle;Max_cycle;Signal;HPM_P1;HPM_P2
2022/05/22 00:02:25;;;;;;;6.72;4.60;;;;;;;20.42;60.99;94372.81;5028847;28;20533;-80
2022/05/22 00:04:53;;;;;;;5.88;4.88;;;;;;;20.33;61.30;94369.69;5033002;28;20258;-79
2022/05/22 00:07:20;;;;;;;5.40;4.15;;;;;;;20.30;61.43;94367.72;5019296;28;20243;-79
2022/05/22 00:09:47;;;;;;;5.75;4.50;;;;;;;20.32;61.24;94370.84;5023082;28;20205;-82
2022/05/22 00:12:14;;;;;;;7.80;4.72;;;;;;;20.33;61.17;94377.16;5015360;28;20207;-78
2022/05/22 00:14:42;;;;;;;6.78;4.57;;;;;;;20.29;61.46;94366.13;5021824;28;20247;-78
2022/05/22 00:17:09;;;;;;;7.03;4.45;;;;;;;20.35;61.05;94364.56;5028468;28;20213;-79
2022/05/22 00:19:39;;;;;;;6.72;4.13;;;;;;;20.34;60.81;94365.75;5022179;28;20243;-81
2022/05/22 00:22:07;;;;;;;6.75;4.40;;;;;;;20.26;60.58;94360.63;5024804;28;20229;-81
2022/05/22 00:24:34;;;;;;;6.43;4.47;;;;;;;20.22;61.25;94366.16;5022484;28;20212;-81
2022/05/22 00:27:02;;;;;;;4.88;3.72;;;;;;;20.25;61.30;94357.09;5018086;28;20232;-81
2022/05/22 00:29:29;;;;;;;6.95;4.13;;;;;;;20.30;60.74;94356.72;5019373;28;20221;-81
2022/05/22 00:31:56;;;;;;;5.53;4.20;;;;;;;20.31;60.55;94344.53;5025039;28;20212;-80
2022/05/22 00:34:23;;;;;;;5.72;3.65;;;;;;;20.30;60.83;94351.22;5024259;28;20208;-80
2022/05/22 00:36:51;;;;;;;4.30;3.72;;;;;;;20.31;60.65;94349.25;5031644;28;20201;-78
2022/05/22 00:39:18;;;;;;;8.02;3.95;;;;;;;20.29;60.88;94346.09;5031455;28;20220;-80
2022/05/22 00:41:49;;;;;;;4.65;3.80;;;;;;;20.29;61.10;94349.63;5031093;28;20635;-81
2022/05/22 00:44:17;;;;;;;4.15;3.75;;;;;;;20.34;60.90;94345.72;5042824;28;20307;-77
2022/05/22 00:46:43;;;;;;;9.73;4.50;;;;;;;20.33;60.42;94347.66;5018240;28;20251;-79
2022/05/22 00:49:15;;;;;;;5.10;4.60;;;;;;;20.35;61.01;94353.56;5031907;28;20258;-80
2022/05/22 00:51:48;;;;;;;5.85;3.78;;;;;;;20.35;60.74;94342.56;5018969;28;20609;-80
2022/05/22 00:54:23;;;;;;;8.80;3.88;;;;;;;20.26;61.11;94350.41;5030242;28;20196;-80
2022/05/22 00:56:55;;;;;;;6.68;4.20;;;;;;;20.21;61.13;94342.59;5020958;28;20200;-81
2022/05/22 00:59:30;;;;;;;6.28;4.05;;;;;;;20.19;61.26;94339.44;5018048;28;20211;-77
2022/05/22 01:02:02;;;;;;;5.55;4.10;;;;;;;20.16;61.44;94346.50;5020282;28;20189;-82
2022/05/22 01:04:31;;;;;;;6.75;4.15;;;;;;;20.14;61.53;94339.84;5030575;28;20196;-78
2022/05/22 01:06:59;;;;;;;4.55;3.92;;;;;;;20.06;61.56;94347.31;5018712;28;20699;-80
2022/05/22 01:09:28;;;;;;;5.47;3.72;;;;;;;20.05;61.76;94350.47;5024716;28;20223;-79
2022/05/22 01:11:59;;;;;;;7.05;3.90;;;;;;;19.98;61.48;94344.97;5023881;28;20599;-79
2022/05/22 01:14:27;;;;;;;4.90;3.85;;;;;;;19.95;61.78;94346.56;5026858;28;20204;-80
2022/05/22 01:16:54;;;;;;;5.25;3.83;;;;;;;19.96;61.59;94344.56;5029473;28;20226;-79
2022/05/22 01:19:23;;;;;;;6.32;3.83;;;;;;;19.98;61.07;94345.75;5023718;28;20201;-80
2022/05/22 01:21:53;;;;;;;5.32;4.00;;;;;;;20.00;60.83;94346.13;5024200;28;20224;-80
2022/05/22 01:24:21;;;;;;;4.97;3.70;;;;;;;19.98;60.64;94344.97;5020262;28;20243;-79
2022/05/22 01:26:50;;;;;;;7.60;4.00;;;;;;;19.99;60.42;94346.53;5017598;28;20349;-80
2022/05/22 01:29:18;;;;;;;5.35;3.95;;;;;;;19.98;59.94;94336.72;5021917;28;20201;-82
2022/05/22 01:31:45;;;;;;;5.65;3.67;;;;;;;20.03;59.60;94337.09;5024452;28;20232;-78
2022/05/22 01:34:12;;;;;;;6.32;3.30;;;;;;;19.98;59.61;94340.25;5020637;28;20203;-80
2022/05/22 01:36:42;;;;;;;5.57;3.92;;;;;;;19.93;59.30;94342.63;5018980;28;20846;-76
2022/05/22 01:39:11;;;;;;;4.82;3.30;;;;;;;20.02;57.01;94337.50;5031614;28;20243;-81
2022/05/22 01:41:38;;;;;;;4.78;2.83;;;;;;;20.06;56.58;94346.53;5026197;28;20263;-83
2022/05/22 01:44:06;;;;;;;3.80;3.40;;;;;;;20.13;56.12;94341.00;5033226;28;20702;-80
2022/05/22 01:46:33;;;;;;;4.00;3.35;;;;;;;20.14;55.98;94342.59;5031768;28;20256;-79
2022/05/22 01:49:00;;;;;;;4.47;2.75;;;;;;;20.22;55.35;94339.44;5030984;28;20227;-80
2022/05/22 01:51:28;;;;;;;5.28;3.13;;;;;;;20.21;55.00;94345.34;5025041;28;20234;-80
2022/05/22 01:53:58;;;;;;;3.47;2.95;;;;;;;20.21;54.46;94346.13;5023859;28;20238;-80
2022/05/22 01:56:26;;;;;;;4.55;2.80;;;;;;;20.08;54.56;94349.69;5017837;28;20239;-78
2022/05/22 01:58:54;;;;;;;6.10;3.47;;;;;;;20.01;54.55;94344.19;5017103;28;20201;-80
2022/05/22 02:01:20;;;;;;;4.82;2.60;;;;;;;19.99;53.82;94343.78;5018895;28;20211;-80
2022/05/22 02:03:47;;;;;;;6.88;2.75;;;;;;;20.00;53.46;94350.84;5021073;28;20695;-80
2022/05/22 02:06:14;;;;;;;3.67;2.60;;;;;;;19.94;53.26;94344.97;5027661;28;20208;-79
2022/05/22 02:08:42;;;;;;;3.78;2.80;;;;;;;19.91;52.71;94351.25;5028068;28;20663;-77
2022/05/22 02:11:09;;;;;;;4.18;2.47;;;;;;;19.93;52.05;94345.38;5022082;28;20208;-79
2022/05/22 02:13:40;;;;;;;3.40;2.55;;;;;;;19.93;51.64;94345.38;5020349;28;20201;-79
2022/05/22 02:16:07;;;;;;;5.95;2.60;;;;;;;19.85;50.93;94353.59;5022952;28;20192;-80
2022/05/22 02:18:34;;;;;;;2.70;2.40;;;;;;;19.92;49.86;94352.03;5021395;28;20299;-77
2022/05/22 02:21:01;;;;;;;3.83;2.45;;;;;;;19.91;49.43;94345.75;5025162;28;20272;-74
2022/05/22 02:23:28;;;;;;;6.35;2.40;;;;;;;19.99;48.29;94352.03;5029916;28;20255;-84
2022/05/22 02:25:56;;;;;;;3.60;2.35;;;;;;;19.99;48.15;94357.53;5033878;28;20315;-79
2022/05/22 02:28:25;;;;;;;3.15;1.98;;;;;;;20.14;46.96;94353.59;5031141;28;20244;-79
2022/05/22 02:30:55;;;;;;;4.50;2.70;;;;;;;20.17;46.05;94347.31;5024027;28;20208;-79
2022/05/22 02:33:22;;;;;;;3.65;2.13;;;;;;;20.06;46.33;94352.03;5020865;28;20675;-79
2022/05/22 02:35:51;;;;;;;3.08;2.15;;;;;;;20.10;45.61;94361.06;5022639;28;20802;-79
2022/05/22 02:38:17;;;;;;;2.60;1.80;;;;;;;20.09;45.42;94351.25;5031103;28;20232;-78
2022/05/22 02:40:45;;;;;;;2.90;1.70;;;;;;;20.16;44.74;94356.72;5022470;28;20205;-84
2022/05/22 02:43:12;;;;;;;2.55;1.88;;;;;;;20.09;45.48;94367.75;5034784;28;20211;-79
2022/05/22 02:45:40;;;;;;;3.53;2.10;;;;;;;20.06;44.87;94357.53;5042420;28;20306;-81
2022/05/22 02:48:09;;;;;;;2.35;1.85;;;;;;;20.06;44.89;94365.78;5034023;28;20236;-80
2022/05/22 02:50:38;;;;;;;2.20;1.90;;;;;;;20.04;44.29;94362.66;5033617;28;20224;-82
2022/05/22 02:53:05;;;;;;;2.63;1.73;;;;;;;20.05;43.97;94366.97;5034103;28;20262;-79
2022/05/22 02:55:31;;;;;;;2.00;1.67;;;;;;;20.01;44.18;94368.94;5034268;28;20228;-80
2022/05/22 02:57:59;;;;;;;2.15;1.73;;;;;;;19.95;43.91;94356.75;5015097;28;20224;-88
2022/05/22 03:00:30;;;;;;;2.80;1.90;;;;;;;19.97;42.91;94365.38;5025757;28;20212;-82
2022/05/22 03:02:57;;;;;;;5.25;1.60;;;;;;;19.99;42.35;94374.81;5020638;28;20662;-79
2022/05/22 03:05:26;;;;;;;2.20;1.67;;;;;;;20.08;41.68;94377.97;5020976;28;20204;-81
2022/05/22 03:07:54;;;;;;;3.17;2.22;;;;;;;20.10;41.12;94374.78;5020238;28;20243;-81
2022/05/22 03:10:22;;;;;;;2.55;1.70;;;;;;;20.11;41.13;94376.38;5033831;28;20304;-79
2022/05/22 03:12:49;;;;;;;2.85;1.42;;;;;;;20.09;40.38;94378.75;5019537;28;20204;-81
2022/05/22 03:15:16;;;;;;;1.85;1.60;;;;;;;20.11;40.59;94382.66;5020650;28;20213;-75
2022/05/22 03:17:43;;;;;;;1.50;1.40;;;;;;;20.06;40.16;94374.03;5033512;28;20223;-80
2022/05/22 03:20:12;;;;;;;3.28;1.52;;;;;;;20.05;39.44;94373.25;5021309;28;20267;-77
2022/05/22 03:22:41;;;;;;;2.30;1.38;;;;;;;20.13;38.48;94376.78;5026702;28;20272;-80
2022/05/22 03:25:09;;;;;;;5.65;1.65;;;;;;;20.12;38.31;94383.44;5028785;28;20220;-78
2022/05/22 03:27:36;;;;;;;2.63;1.50;;;;;;;20.22;36.94;94377.97;5033267;28;20238;-82
2022/05/22 03:30:04;;;;;;;5.68;1.60;;;;;;;20.26;37.17;94372.44;5020212;28;20208;-84
2022/05/22 03:32:32;;;;;;;1.30;1.00;;;;;;;20.26;37.30;94377.94;5023485;28;20204;-82
2022/05/22 03:34:59;;;;;;;2.17;1.17;;;;;;;20.29;37.27;94387.38;5026338;28;20200;-80
2022/05/22 03:37:26;;;;;;;1.40;1.20;;;;;;;20.26;36.84;94380.69;5023154;28;20577;-81
2022/05/22 03:39:54;;;;;;;3.25;1.40;;;;;;;20.29;36.15;94387.38;5033173;28;20258;-79
2022/05/22 03:42:21;;;;;;;2.83;1.30;;;;;;;20.37;35.95;94384.22;5022194;28;20224;-77
2022/05/22 03:44:49;;;;;;;1.88;1.20;;;;;;;20.44;35.05;94384.22;5042913;28;20196;-81
2022/05/22 03:47:15;;;;;;;1.15;1.05;;;;;;;20.62;35.00;94389.69;5032563;28;20336;-80
2022/05/22 03:49:42;;;;;;;1.38;1.20;;;;;;;20.78;34.74;94395.53;5019368;28;20269;-80
2022/05/22 03:52:09;;;;;;;1.90;1.48;;;;;;;20.91;34.21;94390.38;5021362;28;20212;-80
2022/05/22 03:54:36;;;;;;;3.05;0.95;;;;;;;20.88;35.15;94399.44;5026430;28;20580;-79
2022/05/22 03:57:05;;;;;;;1.90;1.20;;;;;;;20.87;34.86;94389.63;5024770;28;20201;-79
2022/05/22 03:59:33;;;;;;;2.08;1.10;;;;;;;20.93;35.52;94388.00;5019020;28;20208;-78
2022/05/22 04:02:00;;;;;;;3.47;1.20;;;;;;;20.94;35.06;94390.38;5020689;28;20539;-81
2022/05/22 04:04:26;;;;;;;1.33;1.05;;;;;;;21.04;35.17;94388.78;5026019;28;20205;-81
2022/05/22 04:06:53;;;;;;;2.60;1.10;;;;;;;20.97;36.21;94388.78;5013028;28;20639;-80
2022/05/22 04:09:21;;;;;;;2.75;1.30;;;;;;;21.00;35.83;94388.00;5031742;28;20277;-79
2022/05/22 04:11:48;;;;;;;1.75;1.20;;;;;;;21.02;35.67;94393.09;5019954;28;20201;-81
2022/05/22 04:14:18;;;;;;;1.40;0.88;;;;;;;21.04;36.86;94383.25;5026220;28;20220;-76
2022/05/22 04:16:45;;;;;;;1.60;1.17;;;;;;;21.11;35.49;94388.72;5025599;28;20295;-86
2022/05/22 04:19:12;;;;;;;3.15;1.20;;;;;;;21.03;36.41;94389.16;5031909;28;20216;-83
2022/05/22 04:21:39;;;;;;;1.83;1.20;;;;;;;21.06;36.75;94397.41;5019717;28;20234;-82
2022/05/22 04:26:51;;;;;;;1.67;1.17;;;;;;;21.25;36.85;94388.69;5025827;28;20196;-83
2022/05/22 04:29:20;;;;;;;1.40;1.00;;;;;;;21.34;37.08;94395.72;5021937;28;20275;-81
2022/05/22 04:31:47;;;;;;;1.50;1.40;;;;;;;21.24;37.99;94403.66;5018592;28;20208;-81
2022/05/22 04:34:13;;;;;;;3.60;1.17;;;;;;;20.94;38.84;94400.59;5031539;28;20204;-82
2022/05/22 04:36:40;;;;;;;1.65;1.30;;;;;;;20.92;39.36;94408.47;5031696;28;20196;-82
2022/05/22 04:39:07;;;;;;;1.83;1.38;;;;;;;20.88;39.22;94402.22;5031775;28;20238;-82
2022/05/22 04:41:34;;;;;;;3.17;1.23;;;;;;;20.79;39.74;94402.59;5027513;28;20255;-87
2022/05/22 04:44:01;;;;;;;1.77;1.08;;;;;;;20.80;40.04;94406.94;5031488;28;20604;-83
2022/05/22 04:46:29;;;;;;;2.92;1.42;;;;;;;20.71;40.26;94403.81;5033061;28;20703;-82
2022/05/22 04:48:56;;;;;;;3.22;1.50;;;;;;;20.71;39.74;94406.56;5019341;28;20604;-85
2022/05/22 04:51:23;;;;;;;1.40;1.10;;;;;;;20.75;40.16;94414.84;5029737;28;20205;-82
2022/05/22 04:53:50;;;;;;;4.53;1.38;;;;;;;20.72;40.50;94410.13;5031157;28;20228;-81
2022/05/22 04:56:18;;;;;;;2.50;1.27;;;;;;;20.76;40.54;94408.16;5018507;28;20204;-82
2022/05/22 04:58:46;;;;;;;3.78;1.30;;;;;;;20.76;40.57;94406.19;5019305;28;20643;-82
2022/05/22 05:01:14;;;;;;;3.10;1.40;;;;;;;20.86;41.40;94410.06;5024542;28;20233;-85
2022/05/22 05:03:42;;;;;;;1.65;1.10;;;;;;;21.02;40.10;94413.16;5024717;28;20200;-83
2022/05/22 05:06:09;;;;;;;1.02;0.93;;;;;;;21.18;41.19;94405.22;5011735;28;20201;-82
2022/05/22 05:08:36;;;;;;;1.40;1.30;;;;;;;21.66;40.41;94412.88;5012110;28;20228;-82
2022/05/22 05:11:03;;;;;;;2.60;1.20;;;;;;;22.03;40.29;94400.41;5031731;28;20639;-81
2022/05/22 05:13:30;;;;;;;2.55;1.42;;;;;;;22.30;40.64;94406.91;5016732;28;20213;-82
2022/05/22 05:16:08;;;;;;;2.80;1.30;;;;;;;22.36;40.19;94398.97;5024682;28;20591;-82
2022/05/22 05:18:36;;;;;;;2.03;1.20;;;;;;;22.69;39.93;94396.25;5013616;28;20196;-82
2022/05/22 05:21:07;;;;;;;1.25;1.08;;;;;;;22.68;39.26;94393.94;5022259;28;20691;-82
2022/05/22 05:23:41;;;;;;;1.92;1.20;;;;;;;22.52;40.39;94402.75;5024615;28;20715;-84
2022/05/22 05:26:09;;;;;;;1.95;1.20;;;;;;;22.07;39.50;94410.25;5022028;28;20279;-82
2022/05/22 05:28:36;;;;;;;1.27;1.17;;;;;;;21.91;39.26;94419.00;5018081;28;20239;-76
2022/05/22 05:31:04;;;;;;;2.40;1.20;;;;;;;21.70;39.23;94408.13;5020607;28;20543;-82
2022/05/22 05:33:33;;;;;;;2.90;1.20;;;;;;;21.60;39.52;94414.47;5024552;28;20228;-87
2022/05/22 05:36:00;;;;;;;1.83;1.30;;;;;;;21.79;39.31;94416.72;5022487;28;20242;-80
2022/05/22 05:38:28;;;;;;;2.17;1.30;;;;;;;21.80;39.64;94412.78;5033692;28;20208;-77
2022/05/22 05:40:55;;;;;;;2.17;1.40;;;;;;;21.69;36.44;94412.06;5033846;28;20228;-78
2022/05/22 05:43:22;;;;;;;1.73;1.30;;;;;;;22.01;37.87;94411.84;5039485;28;20650;-82
2022/05/22 05:45:50;;;;;;;3.10;1.50;;;;;;;22.06;39.00;94402.38;5042991;28;20228;-82
2022/05/22 05:48:18;;;;;;;3.00;1.30;;;;;;;21.83;39.11;94423.00;5034562;28;20239;-79
2022/05/22 05:50:45;;;;;;;2.85;1.58;;;;;;;22.15;40.06;94413.72;5022732;28;20235;-80
2022/05/22 05:53:12;;;;;;;3.90;1.45;;;;;;;22.28;39.59;94415.56;5028157;28;20227;-82
2022/05/22 05:55:40;;;;;;;3.28;1.40;;;;;;;22.08;39.18;94413.78;5028565;28;20200;-79
2022/05/22 05:58:07;;;;;;;1.73;1.38;;;;;;;21.97;39.76;94427.63;5021669;28;20782;-82
2022/05/22 06:00:34;;;;;;;2.88;2.08;;;;;;;22.06;40.25;94424.44;5026689;28;20216;-85
2022/05/22 06:03:01;;;;;;;4.07;1.30;;;;;;;21.79;38.84;94427.75;5027471;28;20224;-88
2022/05/22 06:05:28;;;;;;;2.03;1.27;;;;;;;21.71;39.05;94431.75;5035391;28;20258;-80
2022/05/22 06:07:55;;;;;;;1.98;1.35;;;;;;;21.75;39.64;94432.50;5034611;28;20224;-81
2022/05/22 06:10:22;;;;;;;1.65;1.45;;;;;;;21.72;39.20;94433.34;5021611;28;20571;-83
2022/05/22 06:12:50;;;;;;;1.38;1.27;;;;;;;21.73;39.82;94423.84;5027174;28;20196;-83
2022/05/22 06:15:17;;;;;;;3.95;1.67;;;;;;;21.94;39.94;94429.22;5024167;28;20244;-84
2022/05/22 06:17:47;;;;;;;6.45;1.90;;;;;;;21.97;38.90;94428.44;5031036;28;20196;-82
2022/05/22 06:20:17;;;;;;;2.22;1.45;;;;;;;21.75;38.66;94426.97;5031590;28;20283;-81
2022/05/22 06:22:47;;;;;;;4.53;1.65;;;;;;;21.67;38.18;94425.47;5034707;28;20247;-80
2022/05/22 06:25:17;;;;;;;3.78;1.27;;;;;;;21.60;38.63;94431.00;5032356;28;20663;-81
2022/05/22 06:27:44;;;;;;;5.20;1.67;;;;;;;21.63;39.80;94430.22;5033179;28;20262;-78
2022/05/22 06:30:18;;;;;;;3.95;1.70;;;;;;;21.57;40.01;94427.13;5029567;28;20192;-84
2022/05/22 06:32:45;;;;;;;2.55;1.60;;;;;;;21.55;40.31;94425.94;5032506;28;20422;-85
2022/05/22 06:35:15;;;;;;;2.00;1.25;;;;;;;21.46;41.11;94420.06;5028240;28;20196;-82
2022/05/22 06:37:41;;;;;;;2.95;1.65;;;;;;;21.46;39.83;94425.56;5030106;28;20224;-77
2022/05/22 06:40:09;;;;;;;2.20;1.38;;;;;;;21.34;41.60;94431.53;5024717;28;20607;-81
2022/05/22 06:42:39;;;;;;;2.20;1.48;;;;;;;21.35;40.67;94431.16;5029049;28;20659;-73
2022/05/22 06:45:09;;;;;;;3.47;1.88;;;;;;;21.44;41.44;94430.72;5034630;28;20574;-88
2022/05/22 06:47:38;;;;;;;1.75;1.58;;;;;;;21.49;41.16;94427.53;5030994;28;20221;-81
2022/05/22 06:50:07;;;;;;;4.07;2.15;;;;;;;21.50;41.34;94431.88;5033342;28;20298;-84
2022/05/22 06:52:35;;;;;;;5.38;1.70;;;;;;;21.56;41.73;94422.78;5028814;28;20632;-84
2022/05/22 06:55:03;;;;;;;2.30;1.73;;;;;;;21.69;40.99;94423.09;5032016;28;20295;-85
2022/05/22 06:57:31;;;;;;;2.72;2.22;;;;;;;21.75;42.72;94424.22;5017573;28;20720;-82
2022/05/22 06:59:59;;;;;;;2.45;1.40;;;;;;;21.93;40.40;94422.13;5027759;28;20216;-82
2022/05/22 07:02:28;;;;;;;2.70;1.60;;;;;;;22.15;41.14;94413.72;5022473;28;20192;-80
2022/05/22 07:04:59;;;;;;;2.25;1.45;;;;;;;22.34;39.62;94413.19;5032554;28;20192;-78
2022/05/22 07:07:26;;;;;;;2.10;1.40;;;;;;;22.43;40.13;94410.72;5023561;28;20216;-85
2022/05/22 07:09:54;;;;;;;5.80;3.17;;;;;;;22.53;39.15;94407.09;5020200;28;20236;-84
2022/05/22 07:12:21;;;;;;;2.38;1.38;;;;;;;23.00;39.74;94399.91;5030982;28;20571;-84
2022/05/22 07:14:49;;;;;;;3.45;1.83;;;;;;;23.16;39.95;94393.78;5026571;28;20997;-81
2022/05/22 07:17:21;;;;;;;4.13;1.60;;;;;;;23.03;38.50;94392.75;5024324;28;20230;-78
2022/05/22 07:19:48;;;;;;;3.17;1.38;;;;;;;23.18;38.98;94404.44;5028240;28;20216;-85
2022/05/22 07:22:17;;;;;;;2.05;1.40;;;;;;;23.12;39.55;94395.81;5031228;28;20196;-79
2022/05/22 07:24:44;;;;;;;1.85;1.33;;;;;;;23.06;38.78;94397.47;5032884;28;20189;-76
2022/05/22 07:27:11;;;;;;;2.65;1.55;;;;;;;22.93;39.50;94394.47;5029000;28;20640;-86
2022/05/22 07:29:38;;;;;;;2.50;1.33;;;;;;;23.06;39.83;94391.16;5029082;28;20580;-82
2022/05/22 07:32:06;;;;;;;2.00;1.50;;;;;;;22.95;39.02;94396.81;5031620;28;20225;-84
2022/05/22 07:34:33;;;;;;;2.42;1.42;;;;;;;23.26;39.83;94403.13;5021898;28;20217;-82
2022/05/22 07:37:02;;;;;;;1.73;1.42;;;;;;;23.30;38.99;94401.13;5025085;28;20220;-84
2022/05/22 07:39:30;;;;;;;2.53;1.40;;;;;;;23.39;38.83;94404.16;5028879;28;20698;-77
2022/05/22 07:41:57;;;;;;;2.85;1.60;;;;;;;23.08;38.89;94406.13;5031009;28;20579;-83
2022/05/22 07:44:24;;;;;;;2.30;1.40;;;;;;;22.89;38.15;94403.97;5044535;28;20235;-79
2022/05/22 07:46:51;;;;;;;5.43;1.50;;;;;;;22.90;38.35;94403.56;5029694;28;20232;-78
2022/05/22 07:52:05;;;;;;;2.08;1.40;;;;;;;23.67;38.26;94386.41;5024930;28;20191;-82
2022/05/22 07:54:36;;;;;;;2.33;1.27;;;;;;;23.86;37.87;94394.03;5031334;28;20197;-83
2022/05/22 07:57:03;;;;;;;2.15;1.52;;;;;;;23.51;38.85;94389.00;5030933;28;20216;-81
2022/05/22 07:59:33;;;;;;;2.92;1.55;;;;;;;23.60;38.24;94383.75;5028608;28;20291;-76
2022/05/22 08:02:00;;;;;;;4.53;1.40;;;;;;;23.91;38.15;94373.44;5028585;28;20215;-83
2022/05/22 08:04:27;;;;;;;3.90;1.55;;;;;;;24.59;38.69;94373.88;5028236;28;20342;-83
2022/05/22 08:06:54;;;;;;;6.03;1.70;;;;;;;24.21;37.03;94370.53;5031868;28;20199;-78
2022/05/22 08:09:21;;;;;;;4.40;1.95;;;;;;;23.99;39.38;94367.34;5024185;28;20231;-79
2022/05/22 08:11:49;;;;;;;2.25;1.73;;;;;;;24.12;40.67;94361.22;5031664;28;20223;-82
2022/05/22 08:14:16;;;;;;;3.53;1.70;;;;;;;23.03;41.36;94362.38;5031412;28;20212;-78
2022/05/22 08:16:44;;;;;;;1.85;1.67;;;;;;;22.58;42.15;94353.38;5032301;28;20240;-70
2022/05/22 08:19:12;;;;;;;1.80;1.70;;;;;;;22.55;43.12;94346.69;5018975;28;20579;-80
2022/05/22 08:21:39;;;;;;;4.90;1.90;;;;;;;22.52;43.50;94347.53;5018869;28;20745;-81
2022/05/22 08:24:06;;;;;;;1.65;1.55;;;;;;;22.65;43.70;94350.56;5018749;28;20236;-79
2022/05/22 08:26:33;;;;;;;5.63;1.90;;;;;;;23.02;43.19;94342.25;5031264;28;20260;-80
2022/05/22 08:29:01;;;;;;;1.88;1.65;;;;;;;23.24;43.06;94348.25;5027466;28;20331;-77
2022/05/22 08:31:28;;;;;;;3.95;1.45;;;;;;;23.08;43.10;94339.03;5031023;28;20606;-79
2022/05/22 08:33:55;;;;;;;6.15;1.92;;;;;;;23.28;42.65;94329.66;5024350;28;20236;-78
2022/05/22 08:36:22;;;;;;;3.38;1.90;;;;;;;23.38;42.98;94325.94;5019777;28;20200;-76
2022/05/22 08:38:49;;;;;;;2.10;1.80;;;;;;;23.98;42.04;94324.28;5026882;28;20224;-81
2022/05/22 08:41:21;;;;;;;4.65;2.15;;;;;;;24.60;40.77;94314.47;5028858;28;20227;-80
2022/05/22 08:43:52;;;;;;;2.72;1.63;;;;;;;24.93;40.48;94321.00;5025950;28;20283;-82
2022/05/22 08:46:27;;;;;;;2.05;1.58;;;;;;;24.69;40.47;94328.56;5025170;28;20242;-78
2022/05/22 08:48:57;;;;;;;3.78;1.70;;;;;;;24.26;40.71;94327.78;5028283;28;20240;-77
2022/05/22 08:51:32;;;;;;;3.17;1.60;;;;;;;23.67;41.26;94325.56;5019948;28;20201;-74
2022/05/22 08:54:12;;;;;;;3.45;1.40;;;;;;;23.82;41.10;94326.91;5025330;28;20207;-82
2022/05/22 08:59:26;;;;;;;3.33;1.75;;;;;;;23.31;42.38;94331.59;5023329;28;20200;-77
2022/05/22 09:02:21;;;;;;;3.10;1.63;;;;;;;22.38;42.90;94328.38;5027670;28;20623;-75
2022/05/22 09:04:54;;;;;;;4.70;1.65;;;;;;;22.06;45.85;94338.91;5027639;28;20275;-75
2022/05/22 09:07:24;;;;;;;2.10;1.67;;;;;;;21.73;47.82;94335.59;5019979;28;20197;-79
2022/05/22 09:09:56;;;;;;;2.78;1.85;;;;;;;21.69;47.09;94337.63;5030735;28;20220;-71
2022/05/22 09:12:41;;;;;;;3.45;2.15;;;;;;;21.79;47.41;94334.00;5026650;28;20197;-80
2022/05/22 09:15:15;;;;;;;5.78;2.10;;;;;;;21.68;47.58;94341.56;5024203;28;20224;-77
2022/05/22 09:17:51;;;;;;;3.22;2.10;;;;;;;21.67;47.42;94347.50;5031104;28;20227;-78
2022/05/22 09:20:21;;;;;;;3.17;1.80;;;;;;;21.43;46.89;94340.97;5016486;28;20205;-81
2022/05/22 09:23:06;;;;;;;3.30;2.00;;;;;;;21.92;46.85;94340.59;5021331;28;20225;-76
2022/05/22 09:25:48;;;;;;;4.72;2.00;;;;;;;21.77;47.26;94341.09;5025015;28;20193;-82
2022/05/22 09:28:23;;;;;;;3.40;1.80;;;;;;;21.91;46.20;94330.75;5024970;28;20220;-77
2022/05/22 09:31:04;;;;;;;2.90;2.00;;;;;;;22.16;46.36;94335.28;5019710;28;20208;-81
2022/05/22 09:33:41;;;;;;;3.25;1.65;;;;;;;22.35;44.66;94318.13;5030751;28;20215;-77
2022/05/22 09:36:20;;;;;;;1.80;1.50;;;;;;;22.58;43.82;94312.75;5019318;28;20197;-77
2022/05/22 09:39:00;;;;;;;3.13;1.70;;;;;;;23.18;43.49;94311.25;5019638;28;20191;-81
2022/05/22 09:41:40;;;;;;;1.95;1.40;;;;;;;23.30;41.48;94301.59;5027717;28;20232;-83
2022/05/22 09:44:24;;;;;;;2.63;1.50;;;;;;;23.34;41.38;94319.72;5034096;28;20188;-84
2022/05/22 09:47:09;;;;;;;3.17;1.58;;;;;;;23.69;40.65;94307.34;5018617;28;20247;-77
2022/05/22 09:49:52;;;;;;;4.07;1.63;;;;;;;23.15;41.21;94301.03;5027989;28;20221;-83
2022/05/22 09:52:22;;;;;;;4.63;1.13;;;;;;;23.01;40.29;94309.50;5011538;28;20204;-74
2022/05/22 09:55:16;;;;;;;1.85;1.10;;;;;;;23.11;41.33;94291.97;5025019;28;20229;-83
2022/05/22 09:57:57;;;;;;;3.78;1.42;;;;;;;23.15;41.07;94284.44;5027912;28;20204;-80
2022/05/22 10:00:29;;;;;;;1.60;1.50;;;;;;;23.61;40.99;94289.31;5030682;28;20749;-76
2022/05/22 10:03:04;;;;;;;3.45;1.20;;;;;;;23.86;41.67;94272.31;5017426;28;20199;-81
2022/05/22 10:05:41;;;;;;;2.20;1.50;;;;;;;24.50;40.73;94260.06;5063107;28;20215;-82
2022/05/22 10:08:18;;;;;;;2.72;1.20;;;;;;;24.60;41.15;94266.63;5030616;28;20203;-79
2022/05/22 10:10:54;;;;;;;7.07;1.20;;;;;;;24.60;40.78;94263.88;5030805;28;20298;-80
2022/05/22 10:13:30;;;;;;;1.65;1.30;;;;;;;24.55;40.49;94251.28;5030681;28;20216;-77
2022/05/22 10:16:14;;;;;;;2.72;1.40;;;;;;;25.48;39.95;94250.84;5017348;28;20700;-78
2022/05/22 10:18:51;;;;;;;1.67;1.50;;;;;;;25.31;38.75;94246.50;5029092;28;20192;-82
2022/05/22 10:21:26;;;;;;;3.50;1.33;;;;;;;25.57;36.82;94252.22;5021765;28;20204;-72
2022/05/22 10:24:08;;;;;;;1.92;1.17;;;;;;;25.19;37.36;94249.94;5020822;28;20187;-77
2022/05/22 10:26:45;;;;;;;2.33;1.45;;;;;;;24.93;38.58;94248.94;5034489;28;20696;-73
2022/05/22 10:29:22;;;;;;;2.05;1.48;;;;;;;25.09;38.55;94239.88;5034133;28;20274;-78
2022/05/22 10:31:56;;;;;;;4.50;1.70;;;;;;;25.23;38.74;94231.25;5020271;28;20652;-81
2022/05/22 10:34:35;;;;;;;1.75;1.52;;;;;;;25.33;38.33;94230.19;5023378;28;20193;-72
2022/05/22 10:37:11;;;;;;;1.85;1.45;;;;;;;25.41;39.46;94233.59;5021631;28;20232;-81
2022/05/22 10:39:38;;;;;;;3.15;1.40;;;;;;;25.50;39.64;94231.00;5034280;28;20243;-79
2022/05/22 10:45:02;;;;;;;3.83;1.75;;;;;;;25.38;39.09;94235.25;5044329;28;20199;-81
2022/05/22 10:47:31;;;;;;;2.65;1.65;;;;;;;25.25;40.43;94226.06;5034015;28;20330;-83
2022/05/22 10:50:00;;;;;;;2.70;1.63;;;;;;;25.48;38.27;94223.09;5021251;28;20228;-82
2022/05/22 10:52:34;;;;;;;3.53;1.40;;;;;;;26.33;38.12;94220.19;5020836;28;20205;-78
2022/05/22 10:55:02;;;;;;;1.73;1.50;;;;;;;25.79;37.91;94236.66;5024711;28;20208;-77
2022/05/22 10:57:30;;;;;;;2.28;1.60;;;;;;;25.57;37.90;94222.50;5026585;28;20706;-83
2022/05/22 10:59:58;;;;;;;3.72;1.65;;;;;;;25.13;38.00;94229.50;5023004;28;20232;-84
2022/05/22 11:02:28;;;;;;;2.95;1.55;;;;;;;25.14;39.11;94225.53;5020376;28;20208;-76
2022/05/22 11:04:57;;;;;;;2.00;1.73;;;;;;;25.18;39.49;94217.88;5023441;28;20208;-80
2022/05/22 11:07:31;;;;;;;1.88;1.65;;;;;;;25.01;39.26;94227.41;5027420;28;20201;-78
2022/05/22 11:10:09;;;;;;;2.05;1.40;;;;;;;24.24;39.50;94219.47;5025558;28;20240;-80
2022/05/22 11:12:35;;;;;;;3.30;1.60;;;;;;;25.13;39.83;94229.50;5020305;28;20220;-75
2022/05/22 11:15:08;;;;;;;1.80;1.40;;;;;;;25.33;38.59;94227.44;5033086;28;20228;-83
2022/05/22 11:17:35;;;;;;;3.63;1.70;;;;;;;25.17;39.43;94224.63;5021445;28;20193;-82
2022/05/22 11:20:10;;;;;;;3.25;1.70;;;;;;;24.93;40.36;94237.03;5020067;28;20205;-78
2022/05/22 11:22:59;;;;;;;2.65;1.52;;;;;;;24.62;40.59;94223.44;5033273;28;20188;-74
2022/05/22 11:25:34;;;;;;;2.75;2.10;;;;;;;24.88;40.45;94212.59;5020276;28;20225;-79
2022/05/22 11:28:17;;;;;;;4.00;1.83;;;;;;;24.94;41.41;94210.91;5019820;28;20196;-77
2022/05/22 11:30:51;;;;;;;1.75;1.40;;;;;;;24.89;41.12;94214.16;5022542;28;20232;-78
2022/05/22 11:33:33;;;;;;;1.63;1.52;;;;;;;24.79;41.45;94197.34;5032747;28;20192;-72
2022/05/22 11:36:13;;;;;;;1.67;1.58;;;;;;;24.82;41.45;94192.94;5020642;28;20228;-80
2022/05/22 11:38:52;;;;;;;1.63;1.52;;;;;;;25.19;41.44;94177.06;5020003;28;20232;-75
2022/05/22 11:41:27;;;;;;;3.65;1.90;;;;;;;25.01;40.98;94183.06;5030580;28;20196;-69
2022/05/22 11:44:17;;;;;;;4.28;1.92;;;;;;;25.64;40.90;94171.63;5030691;28;20796;-80
2022/05/22 11:46:54;;;;;;;2.55;1.83;;;;;;;25.59;41.30;94183.22;5019818;28;20251;-76
2022/05/22 11:49:30;;;;;;;2.28;1.63;;;;;;;25.31;41.44;94179.94;5030752;28;20208;-81
2022/05/22 11:55:11;;;;;;;4.00;1.98;;;;;;;24.33;39.83;94211.34;5020792;28;20295;-76
2022/05/22 11:57:41;;;;;;;3.22;1.70;;;;;;;23.94;38.85;94207.31;5032668;28;20187;-73
2022/05/22 12:00:15;;;;;;;1.75;1.50;;;;;;;23.80;39.96;94210.34;5022880;28;20209;-75
2022/05/22 12:03:00;;;;;;;2.03;1.52;;;;;;;23.62;40.44;94209.91;5025783;28;20197;-80